createdAt,value
2018-08-12T00:00:24.520Z,80.11
2018-08-12T00:01:24.474Z,79.93
2018-08-12T00:02:24.464Z,80.59
2018-08-12T00:03:24.464Z,80.98
2018-08-12T00:04:24.462Z,80.79
2018-08-12T00:05:24.458Z,80.59
2018-08-12T00:06:24.466Z,80.88
2018-08-12T00:07:24.458Z,81.07
2018-08-12T00:08:24.457Z,81.45
2018-08-12T00:09:24.466Z,81.36
2018-08-12T00:10:24.469Z,81.84
2018-08-12T00:11:24.453Z,81.84
2018-08-12T00:12:24.451Z,81.84
2018-08-12T00:13:24.451Z,82.31
2018-08-12T00:14:24.451Z,81.89
2018-08-12T00:15:24.455Z,81.99
2018-08-12T00:16:24.448Z,81.65
2018-08-12T00:17:24.448Z,82.41
2018-08-12T00:18:24.446Z,82.89
2018-08-12T00:19:24.447Z,82.22
2018-08-12T00:20:24.441Z,81.93
2018-08-12T00:21:24.443Z,82.65
2018-08-12T00:22:24.442Z,82.75
2018-08-12T00:23:24.441Z,82.65
2018-08-12T00:24:24.440Z,82.75
2018-08-12T00:25:24.438Z,82.94
2018-08-12T00:26:24.437Z,83.51
2018-08-12T00:27:24.440Z,83.51
2018-08-12T00:28:24.434Z,83.13
2018-08-12T00:29:24.434Z,82.75
2018-08-12T00:30:24.435Z,82.84
2018-08-12T00:31:24.433Z,83.04
2018-08-12T00:32:24.435Z,83.33
2018-08-12T00:33:24.435Z,83.33
2018-08-12T00:34:24.431Z,83.42
2018-08-12T00:35:24.429Z,83.13
2018-08-12T00:36:24.425Z,83.61
2018-08-12T00:37:24.425Z,83.80
2018-08-12T00:38:24.426Z,83.42
2018-08-12T00:39:24.424Z,84.28
2018-08-12T00:40:24.420Z,83.80
2018-08-12T00:41:24.422Z,84.19
2018-08-12T00:42:24.419Z,84.85
2018-08-12T00:43:24.420Z,84.95
2018-08-12T00:44:24.418Z,85.05
2018-08-12T00:45:24.416Z,84.76
2018-08-12T00:46:24.416Z,85.05
2018-08-12T00:47:24.411Z,85.24
2018-08-12T00:48:24.411Z,84.81
2018-08-12T00:49:24.412Z,85.33
2018-08-12T00:50:24.488Z,85.62
2018-08-12T00:51:24.409Z,86.10
2018-08-12T00:52:24.416Z,86.10
2018-08-12T00:53:24.407Z,86.19
2018-08-12T00:54:24.405Z,86.10
2018-08-12T00:55:24.404Z,86.10
2018-08-12T00:56:24.401Z,86.10
2018-08-12T00:57:24.400Z,86.00
2018-08-12T00:58:24.402Z,86.10
2018-08-12T00:59:24.398Z,86.47
2018-08-12T01:00:24.398Z,85.62
2018-08-12T01:01:24.396Z,86.19
2018-08-12T01:02:24.396Z,85.90
2018-08-12T01:03:24.393Z,85.96
2018-08-12T01:04:24.391Z,86.10
2018-08-12T01:05:24.393Z,86.24
2018-08-12T01:06:24.390Z,86.19
2018-08-12T01:07:24.388Z,86.38
2018-08-12T01:08:24.386Z,86.47
2018-08-12T01:09:24.387Z,86.47
2018-08-12T01:10:24.387Z,87.15
2018-08-12T01:11:24.380Z,87.10
2018-08-12T01:12:24.380Z,86.91
2018-08-12T01:13:24.380Z,86.96
2018-08-12T01:14:24.376Z,87.20
2018-08-12T01:15:24.378Z,87.39
2018-08-12T01:16:24.376Z,87.20
2018-08-12T01:17:24.373Z,86.91
2018-08-12T01:18:24.373Z,87.10
2018-08-12T01:19:24.375Z,87.39
2018-08-12T01:20:24.373Z,87.96
2018-08-12T01:21:24.368Z,88.06
2018-08-12T01:22:24.367Z,87.87
2018-08-12T01:23:24.364Z,87.77
2018-08-12T01:24:24.365Z,88.44
2018-08-12T01:25:24.361Z,87.87
2018-08-12T01:26:24.363Z,88.15
2018-08-12T01:27:24.361Z,87.96
2018-08-12T01:28:24.356Z,88.06
2018-08-12T01:29:24.358Z,88.06
2018-08-12T01:30:24.356Z,88.25
2018-08-12T01:31:24.352Z,88.82
2018-08-12T01:32:24.357Z,88.34
2018-08-12T01:33:24.353Z,88.25
2018-08-12T01:34:24.354Z,88.92
2018-08-12T01:35:24.352Z,88.73
2018-08-12T01:36:24.347Z,88.34
2018-08-12T01:37:24.346Z,88.82
2018-08-12T01:38:24.343Z,89.11
2018-08-12T01:39:24.345Z,88.63
2018-08-12T01:40:24.340Z,89.78
2018-08-12T01:41:24.340Z,89.68
2018-08-12T01:42:24.338Z,89.39
2018-08-12T01:43:24.337Z,89.59
2018-08-12T01:44:24.335Z,89.68
2018-08-12T01:45:24.335Z,89.64
2018-08-12T01:46:24.332Z,89.64
2018-08-12T01:47:24.332Z,88.78
2018-08-12T01:48:24.334Z,89.64
2018-08-12T01:49:24.326Z,89.54
2018-08-12T01:50:24.328Z,89.64
2018-08-12T01:51:24.328Z,88.97
2018-08-12T01:52:24.327Z,89.73
2018-08-12T01:53:24.322Z,89.64
2018-08-12T01:54:24.318Z,89.45
2018-08-12T01:55:24.320Z,89.45
2018-08-12T01:56:24.314Z,89.64
2018-08-12T01:57:24.317Z,89.54
2018-08-12T01:58:24.315Z,90.02
2018-08-12T01:59:24.312Z,89.54
2018-08-12T02:00:24.310Z,89.45
2018-08-12T02:01:24.308Z,90.31
2018-08-12T02:02:24.308Z,90.50
2018-08-12T02:03:24.306Z,90.31
2018-08-12T02:04:24.304Z,90.59
2018-08-12T02:05:24.306Z,90.97
2018-08-12T02:06:24.301Z,90.69
2018-08-12T02:07:24.300Z,90.40
2018-08-12T02:08:24.305Z,90.69
2018-08-12T02:09:24.295Z,90.78
2018-08-12T02:10:24.296Z,90.31
2018-08-12T02:11:24.292Z,90.97
2018-08-12T02:12:24.293Z,91.36
2018-08-12T02:13:24.288Z,90.97
2018-08-12T02:14:24.286Z,91.16
2018-08-12T02:15:24.286Z,90.97
2018-08-12T02:16:24.284Z,91.55
2018-08-12T02:17:24.282Z,91.55
2018-08-12T02:18:24.288Z,91.26
2018-08-12T02:19:24.279Z,90.97
2018-08-12T02:20:24.278Z,91.55
2018-08-12T02:21:24.275Z,91.93
2018-08-12T02:22:24.273Z,91.64
2018-08-12T02:23:24.272Z,91.36
2018-08-12T02:24:24.270Z,91.45
2018-08-12T02:25:24.268Z,91.36
2018-08-12T02:26:24.266Z,91.74
2018-08-12T02:27:24.265Z,91.55
2018-08-12T02:28:24.263Z,91.26
2018-08-12T02:29:24.260Z,92.02
2018-08-12T02:30:24.260Z,91.83
2018-08-12T02:31:24.258Z,92.12
2018-08-12T02:32:24.254Z,92.97
2018-08-12T02:33:24.252Z,92.74
2018-08-12T02:34:24.252Z,93.07
2018-08-12T02:35:24.252Z,93.02
2018-08-12T02:36:24.248Z,93.07
2018-08-12T02:37:24.249Z,92.93
2018-08-12T02:38:24.244Z,93.07
2018-08-12T02:39:24.244Z,92.83
2018-08-12T02:40:24.242Z,93.22
2018-08-12T02:41:24.242Z,93.02
2018-08-12T02:42:24.237Z,93.07
2018-08-12T02:43:24.244Z,93.26
2018-08-12T02:44:24.238Z,93.51
2018-08-12T02:45:24.235Z,93.70
2018-08-12T02:46:24.234Z,93.31
2018-08-12T02:47:24.228Z,93.41
2018-08-12T02:48:24.227Z,93.51
2018-08-12T02:49:24.228Z,93.41
2018-08-12T02:50:24.222Z,93.41
2018-08-12T02:51:24.219Z,93.31
2018-08-12T02:52:24.236Z,93.79
2018-08-12T02:53:24.216Z,93.60
2018-08-12T02:54:24.215Z,93.93
2018-08-12T02:55:24.212Z,94.27
2018-08-12T02:56:24.215Z,94.74
2018-08-12T02:57:24.211Z,94.27
2018-08-12T02:58:24.208Z,93.70
2018-08-12T02:59:24.207Z,94.56
2018-08-12T03:00:24.204Z,93.88
2018-08-12T03:01:24.210Z,94.27
2018-08-12T03:02:24.200Z,93.60
2018-08-12T03:03:24.203Z,94.27
2018-08-12T03:04:24.195Z,93.98
2018-08-12T03:05:24.198Z,94.74
2018-08-12T03:06:24.193Z,93.79
2018-08-12T03:07:24.188Z,95.12
2018-08-12T03:08:24.186Z,94.65
2018-08-12T03:09:24.185Z,94.36
2018-08-12T03:10:24.188Z,94.46
2018-08-12T03:11:24.184Z,94.65
2018-08-12T03:12:24.181Z,95.03
2018-08-12T03:13:24.179Z,94.74
2018-08-12T03:14:24.175Z,94.93
2018-08-12T03:15:24.181Z,95.03
2018-08-12T03:16:24.172Z,95.17
2018-08-12T03:17:24.169Z,95.84
2018-08-12T03:18:24.169Z,94.89
2018-08-12T03:19:24.167Z,95.03
2018-08-12T03:20:24.163Z,95.75
2018-08-12T03:21:24.164Z,95.61
2018-08-12T03:22:24.221Z,94.98
2018-08-12T03:23:24.158Z,94.79
2018-08-12T03:24:24.159Z,95.08
2018-08-12T03:25:24.153Z,94.70
2018-08-12T03:26:24.154Z,94.98
2018-08-12T03:27:24.150Z,94.70
2018-08-12T03:28:24.153Z,94.70
2018-08-12T03:29:24.146Z,95.17
2018-08-12T03:30:24.219Z,94.79
2018-08-12T03:31:24.142Z,94.89
2018-08-12T03:32:24.140Z,94.22
2018-08-12T03:33:24.136Z,94.22
2018-08-12T03:34:24.137Z,94.41
2018-08-12T03:35:24.135Z,93.93
2018-08-12T03:36:24.131Z,94.41
2018-08-12T03:37:24.131Z,93.84
2018-08-12T03:38:24.129Z,94.12
2018-08-12T03:39:24.127Z,93.84
2018-08-12T03:40:24.128Z,94.12
2018-08-12T03:41:24.122Z,94.31
2018-08-12T03:42:24.120Z,94.03
2018-08-12T03:43:24.122Z,94.03
2018-08-12T03:44:24.117Z,94.22
2018-08-12T03:45:24.115Z,93.36
2018-08-12T03:46:24.114Z,93.74
2018-08-12T03:47:24.113Z,93.46
2018-08-12T03:48:24.109Z,93.55
2018-08-12T03:49:24.112Z,93.65
2018-08-12T03:50:24.105Z,93.46
2018-08-12T03:51:24.107Z,93.36
2018-08-12T03:52:24.101Z,93.07
2018-08-12T03:53:24.100Z,93.31
2018-08-12T03:54:24.099Z,94.07
2018-08-12T03:55:24.096Z,94.27
2018-08-12T03:56:24.096Z,93.88
2018-08-12T03:57:24.093Z,93.21
2018-08-12T03:58:24.089Z,93.21
2018-08-12T03:59:24.095Z,93.60
2018-08-12T04:00:24.087Z,93.21
2018-08-12T04:01:24.086Z,92.64
2018-08-12T04:02:24.162Z,92.93
2018-08-12T04:03:24.083Z,92.40
2018-08-12T04:04:24.082Z,92.50
2018-08-12T04:05:24.079Z,92.02
2018-08-12T04:06:24.076Z,92.02
2018-08-12T04:07:24.074Z,91.83
2018-08-12T04:08:24.074Z,91.35
2018-08-12T04:09:24.071Z,92.02
2018-08-12T04:10:24.071Z,91.64
2018-08-12T04:11:24.068Z,91.83
2018-08-12T04:12:24.068Z,91.83
2018-08-12T04:13:24.067Z,91.83
2018-08-12T04:14:24.064Z,92.50
2018-08-12T04:15:24.064Z,91.64
2018-08-12T04:16:24.060Z,91.64
2018-08-12T04:17:24.058Z,91.83
2018-08-12T04:18:24.058Z,91.06
2018-08-12T04:19:24.058Z,91.35
2018-08-12T04:20:24.055Z,91.93
2018-08-12T04:21:24.052Z,91.45
2018-08-12T04:22:24.052Z,91.16
2018-08-12T04:23:24.049Z,91.54
2018-08-12T04:24:24.045Z,91.74
2018-08-12T04:25:24.044Z,91.74
2018-08-12T04:26:24.045Z,91.83
2018-08-12T04:27:24.043Z,92.21
2018-08-12T04:28:24.044Z,91.35
2018-08-12T04:29:24.040Z,91.30
2018-08-12T04:30:24.038Z,91.16
2018-08-12T04:31:24.037Z,90.63
2018-08-12T04:32:24.035Z,90.73
2018-08-12T04:33:24.033Z,91.30
2018-08-12T04:34:24.032Z,91.20
2018-08-12T04:35:24.031Z,90.73
2018-08-12T04:36:24.029Z,90.63
2018-08-12T04:37:24.028Z,90.06
2018-08-12T04:38:24.030Z,89.96
2018-08-12T04:39:24.031Z,89.67
2018-08-12T04:40:24.025Z,89.58
2018-08-12T04:41:24.022Z,90.01
2018-08-12T04:42:24.022Z,88.76
2018-08-12T04:43:24.021Z,88.76
2018-08-12T04:44:24.018Z,89.05
2018-08-12T04:45:24.021Z,88.48
2018-08-12T04:46:24.021Z,87.81
2018-08-12T04:47:24.020Z,87.33
2018-08-12T04:48:24.014Z,87.27
2018-08-12T04:49:24.014Z,86.80
2018-08-12T04:50:24.013Z,86.04
2018-08-12T04:51:24.018Z,85.12
2018-08-12T04:52:24.012Z,83.63
2018-08-12T04:53:24.011Z,80.74
2018-08-12T04:54:24.012Z,78.09
2018-08-12T04:55:24.007Z,75.20
2018-08-12T04:56:24.007Z,72.54
2018-08-12T04:57:24.008Z,70.98
2018-08-12T04:58:24.006Z,69.15
2018-08-12T04:59:24.005Z,67.74
2018-08-12T05:00:24.005Z,65.75
2018-08-12T05:01:24.004Z,65.50
2018-08-12T05:02:24.004Z,64.56
2018-08-12T05:03:24.004Z,63.41
2018-08-12T05:04:24.004Z,61.90
2018-08-12T05:05:24.003Z,60.55
2018-08-12T05:06:24.004Z,60.28
2018-08-12T05:07:24.002Z,59.93
2018-08-12T05:08:24.001Z,58.87
2018-08-12T05:09:24.004Z,58.00
2018-08-12T05:10:24.003Z,57.26
2018-08-12T05:11:24.003Z,57.54
2018-08-12T05:12:24.004Z,57.64
2018-08-12T05:13:24.005Z,56.99
2018-08-12T05:14:24.008Z,56.32
2018-08-12T05:15:24.007Z,55.74
2018-08-12T05:16:24.007Z,55.57
2018-08-12T05:17:24.007Z,54.73
2018-08-12T05:18:24.009Z,54.63
2018-08-12T05:19:24.010Z,53.11
2018-08-12T05:20:24.008Z,52.14
2018-08-12T05:21:24.013Z,51.76
2018-08-12T05:22:24.014Z,51.68
2018-08-12T05:23:24.017Z,51.47
2018-08-12T05:24:24.018Z,51.59
2018-08-12T05:25:24.015Z,50.82
2018-08-12T05:26:24.022Z,51.20
2018-08-12T05:27:24.025Z,51.62
2018-08-12T05:28:24.021Z,51.13
2018-08-12T05:29:24.023Z,49.39
2018-08-12T05:30:24.026Z,49.61
2018-08-12T05:31:24.029Z,48.61
2018-08-12T05:32:24.031Z,49.39
2018-08-12T05:33:24.032Z,49.12
2018-08-12T05:34:24.033Z,48.44
2018-08-12T05:35:24.035Z,48.37
2018-08-12T05:36:24.039Z,47.20
2018-08-12T05:37:24.043Z,46.92
2018-08-12T05:38:24.041Z,47.11
2018-08-12T05:39:24.045Z,46.45
2018-08-12T05:40:24.046Z,45.68
2018-08-12T05:41:24.050Z,45.58
2018-08-12T05:42:24.053Z,45.89
2018-08-12T05:43:24.056Z,45.70
2018-08-12T05:44:24.060Z,45.68
2018-08-12T05:45:24.059Z,45.78
2018-08-12T05:46:24.066Z,45.58
2018-08-12T05:47:24.066Z,44.83
2018-08-12T05:48:24.070Z,44.54
2018-08-12T05:49:24.072Z,44.37
2018-08-12T05:50:24.075Z,44.37
2018-08-12T05:51:24.085Z,44.38
2018-08-12T05:52:24.079Z,43.63
2018-08-12T05:53:24.088Z,42.76
2018-08-12T05:54:24.090Z,42.78
2018-08-12T05:55:24.091Z,42.50
2018-08-12T05:56:24.094Z,41.93
2018-08-12T05:57:24.096Z,42.02
2018-08-12T05:58:24.105Z,42.02
2018-08-12T05:59:24.105Z,41.16
2018-08-12T06:00:24.109Z,40.27
2018-08-12T06:01:24.113Z,40.56
2018-08-12T06:02:24.115Z,40.69
2018-08-12T06:03:24.121Z,42.29
2018-08-12T06:04:24.122Z,41.63
2018-08-12T06:05:24.128Z,41.14
2018-08-12T06:06:24.131Z,40.66
2018-08-12T06:07:24.142Z,41.14
2018-08-12T06:08:24.140Z,40.29
2018-08-12T06:09:24.145Z,39.72
2018-08-12T06:10:24.148Z,39.72
2018-08-12T06:11:24.153Z,39.16
2018-08-12T06:12:24.160Z,38.59
2018-08-12T06:13:24.161Z,38.42
2018-08-12T06:14:24.167Z,37.13
2018-08-12T06:15:24.171Z,37.93
2018-08-12T06:16:24.175Z,37.17
2018-08-12T06:17:24.232Z,36.19
2018-08-12T06:18:24.187Z,35.90
2018-08-12T06:19:24.193Z,35.31
2018-08-12T06:20:24.195Z,35.90
2018-08-12T06:21:24.204Z,36.78
2018-08-12T06:22:24.205Z,35.12
2018-08-12T06:23:24.211Z,34.84
2018-08-12T06:24:24.216Z,34.38
2018-08-12T06:25:24.220Z,33.70
2018-08-12T06:26:24.226Z,33.70
2018-08-12T06:27:24.233Z,33.51
2018-08-12T06:28:24.237Z,32.73
2018-08-12T06:29:24.243Z,32.53
2018-08-12T06:30:24.248Z,33.41
2018-08-12T06:31:24.276Z,33.43
2018-08-12T06:32:24.292Z,32.94
2018-08-12T06:33:24.264Z,31.96
2018-08-12T06:34:24.306Z,32.55
2018-08-12T06:35:24.276Z,32.43
2018-08-12T06:36:24.281Z,32.84
2018-08-12T06:37:24.287Z,32.94
2018-08-12T06:38:24.293Z,32.73
2018-08-12T06:39:24.297Z,33.69
2018-08-12T06:40:24.304Z,34.38
2018-08-12T06:41:24.312Z,34.16
2018-08-12T06:42:24.314Z,33.97
2018-08-12T06:43:24.319Z,34.26
2018-08-12T06:44:24.325Z,33.97
2018-08-12T06:45:24.335Z,34.06
2018-08-12T06:46:24.385Z,33.56
2018-08-12T06:47:24.344Z,33.95
2018-08-12T06:48:24.350Z,34.14
2018-08-12T06:49:24.367Z,33.95
2018-08-12T06:50:24.362Z,34.06
2018-08-12T06:51:24.369Z,33.59
2018-08-12T06:52:24.375Z,32.82
2018-08-12T06:53:24.380Z,32.81
2018-08-12T06:54:24.387Z,32.73
2018-08-12T06:55:24.397Z,32.84
2018-08-12T06:56:24.398Z,32.26
2018-08-12T06:57:24.406Z,32.84
2018-08-12T06:58:24.411Z,32.62
2018-08-12T06:59:24.425Z,32.92
2018-08-12T07:00:24.462Z,32.55
2018-08-12T07:01:24.429Z,32.46
2018-08-12T07:02:24.436Z,31.28
2018-08-12T07:03:24.446Z,32.56
2018-08-12T07:04:24.448Z,31.99
2018-08-12T07:05:24.455Z,31.80
2018-08-12T07:06:24.462Z,31.20
2018-08-12T07:07:24.469Z,31.13
2018-08-12T07:08:24.476Z,30.83
2018-08-12T07:09:24.480Z,31.11
2018-08-12T07:10:24.487Z,31.49
2018-08-12T07:11:24.492Z,31.10
2018-08-12T07:12:24.499Z,31.39
2018-08-12T07:13:24.505Z,32.26
2018-08-12T07:14:24.636Z,31.59
2018-08-12T07:15:24.520Z,31.49
2018-08-12T07:16:24.525Z,31.60
2018-08-12T07:17:24.537Z,31.03
2018-08-12T07:18:24.542Z,30.93
2018-08-12T07:19:24.549Z,30.35
2018-08-12T07:20:24.553Z,30.93
2018-08-12T07:21:24.569Z,29.77
2018-08-12T07:22:24.568Z,29.79
2018-08-12T07:23:24.575Z,29.39
2018-08-12T07:24:24.582Z,29.38
2018-08-12T07:25:24.588Z,29.56
2018-08-12T07:26:24.597Z,29.58
2018-08-12T07:27:24.604Z,29.88
2018-08-12T07:28:24.611Z,29.00
2018-08-12T07:29:24.619Z,28.93
2018-08-12T07:30:24.626Z,28.74
2018-08-12T07:31:24.635Z,27.75
2018-08-12T07:32:24.641Z,27.91
2018-08-12T07:33:24.650Z,28.78
2018-08-12T07:34:24.656Z,29.61
2018-08-12T07:35:24.672Z,30.10
2018-08-12T07:36:24.676Z,31.54
2018-08-12T07:37:24.684Z,31.16
2018-08-12T07:38:24.686Z,32.75
2018-08-12T07:39:24.694Z,33.36
2018-08-12T07:40:24.699Z,32.62
2018-08-12T07:41:24.710Z,31.87
2018-08-12T07:42:24.720Z,30.61
2018-08-12T07:43:24.726Z,29.93
2018-08-12T07:44:24.733Z,30.33
2018-08-12T07:45:24.734Z,29.85
2018-08-12T07:46:24.746Z,29.75
2018-08-12T07:47:24.760Z,29.27
2018-08-12T07:48:24.764Z,28.58
2018-08-12T07:49:24.771Z,28.78
2018-08-12T07:50:24.780Z,28.81
2018-08-12T07:51:24.788Z,27.44
2018-08-12T07:52:24.797Z,27.95
2018-08-12T07:53:24.807Z,27.74
2018-08-12T07:54:24.816Z,28.11
2018-08-12T07:55:24.829Z,28.57
2018-08-12T07:56:24.827Z,29.94
2018-08-12T07:57:24.836Z,29.27
2018-08-12T07:58:24.845Z,28.89
2018-08-12T07:59:24.853Z,28.51
2018-08-12T08:00:24.861Z,27.53
2018-08-12T08:01:24.869Z,27.66
2018-08-12T08:02:24.878Z,27.97
2018-08-12T08:03:24.887Z,27.28
2018-08-12T08:04:24.895Z,27.87
2018-08-12T08:05:24.905Z,29.61
2018-08-12T08:06:24.981Z,29.83
2018-08-12T08:07:24.921Z,28.89
2018-08-12T08:08:24.932Z,27.63
2018-08-12T08:09:24.943Z,26.87
2018-08-12T08:10:24.947Z,27.08
2018-08-12T08:11:24.956Z,27.06
2018-08-12T08:12:25.006Z,27.34
2018-08-12T08:13:24.973Z,28.29
2018-08-12T08:14:24.987Z,28.78
2018-08-12T08:15:24.992Z,28.11
2018-08-12T08:16:25.001Z,27.23
2018-08-12T08:17:25.011Z,27.35
2018-08-12T08:18:25.020Z,27.36
2018-08-12T08:19:25.034Z,26.17
2018-08-12T08:20:25.064Z,26.87
2018-08-12T08:21:25.049Z,26.29
2018-08-12T08:22:25.061Z,25.92
2018-08-12T08:23:25.068Z,25.24
2018-08-12T08:24:25.107Z,25.24
2018-08-12T08:25:25.125Z,25.63
2018-08-12T08:26:25.095Z,25.34
2018-08-12T08:27:25.103Z,25.04
2018-08-12T08:28:25.124Z,25.26
2018-08-12T08:29:25.134Z,24.29
2018-08-12T08:30:25.136Z,24.38
2018-08-12T08:31:25.157Z,23.61
2018-08-12T08:32:25.156Z,23.60
2018-08-12T08:33:25.166Z,24.26
2018-08-12T08:34:25.172Z,25.04
2018-08-12T08:35:25.195Z,24.55
2018-08-12T08:36:25.194Z,24.16
2018-08-12T08:37:25.205Z,24.06
2018-08-12T08:38:25.213Z,24.04
2018-08-12T08:39:25.225Z,25.11
2018-08-12T08:40:25.237Z,25.49
2018-08-12T08:41:25.245Z,25.45
2018-08-12T08:42:25.252Z,26.50
2018-08-12T08:43:25.265Z,27.29
2018-08-12T08:44:25.282Z,27.40
2018-08-12T08:45:25.286Z,26.34
2018-08-12T08:46:25.291Z,25.68
2018-08-12T08:47:25.305Z,25.89
2018-08-12T08:48:25.314Z,25.32
2018-08-12T08:49:25.337Z,25.38
2018-08-12T08:50:25.333Z,26.90
2018-08-12T08:51:25.344Z,28.93
2018-08-12T08:52:25.353Z,29.53
2018-08-12T08:53:25.363Z,31.71
2018-08-12T08:54:25.383Z,33.34
2018-08-12T08:55:25.380Z,33.51
2018-08-12T08:56:25.391Z,34.67
2018-08-12T08:57:25.403Z,35.24
2018-08-12T08:58:25.405Z,35.61
2018-08-12T08:59:25.418Z,35.84
2018-08-12T09:00:25.424Z,33.34
2018-08-12T09:01:25.545Z,31.82
2018-08-12T09:02:25.439Z,30.65
2018-08-12T09:03:25.447Z,29.71
2018-08-12T09:04:25.451Z,29.44
2018-08-12T09:05:25.462Z,28.77
2018-08-12T09:06:25.470Z,29.06
2018-08-12T09:07:25.479Z,29.82
2018-08-12T09:08:25.910Z,30.29
2018-08-12T09:09:25.493Z,30.68
2018-08-12T09:10:25.499Z,29.79
2018-08-12T09:11:25.506Z,31.43
2018-08-12T09:12:25.513Z,32.37
2018-08-12T09:13:25.519Z,33.62
2018-08-12T09:14:25.528Z,34.01
2018-08-12T09:15:25.532Z,34.46
2018-08-12T09:16:25.552Z,34.56
2018-08-12T09:17:25.545Z,35.40
2018-08-12T09:18:25.549Z,36.06
2018-08-12T09:19:25.561Z,36.82
2018-08-12T09:20:25.562Z,38.46
2018-08-12T09:21:25.568Z,39.14
2018-08-12T09:22:25.579Z,38.25
2018-08-12T09:23:25.580Z,39.61
2018-08-12T09:24:25.588Z,38.83
2018-08-12T09:25:25.591Z,38.73
2018-08-12T09:26:25.596Z,38.93
2018-08-12T09:27:25.603Z,37.67
2018-08-12T09:28:25.609Z,37.26
2018-08-12T09:29:25.645Z,38.23
2018-08-12T09:30:25.623Z,38.71
2018-08-12T09:31:25.628Z,39.01
2018-08-12T09:32:25.632Z,38.91
2018-08-12T09:33:25.634Z,39.78
2018-08-12T09:34:25.639Z,39.20
2018-08-12T09:35:25.644Z,38.91
2018-08-12T09:36:25.650Z,39.20
2018-08-12T09:37:25.655Z,38.71
2018-08-12T09:38:25.663Z,38.43
2018-08-12T09:39:25.690Z,40.26
2018-08-12T09:40:25.670Z,41.04
2018-08-12T09:41:25.676Z,40.17
2018-08-12T09:42:25.680Z,40.03
2018-08-12T09:43:25.686Z,41.02
2018-08-12T09:44:25.689Z,41.79
2018-08-12T09:45:25.693Z,41.99
2018-08-12T09:46:25.698Z,41.02
2018-08-12T09:47:25.705Z,41.41
2018-08-12T09:48:25.707Z,40.44
2018-08-12T09:49:25.714Z,39.76
2018-08-12T09:50:25.716Z,39.67
2018-08-12T09:51:25.780Z,40.83
2018-08-12T09:52:25.724Z,40.53
2018-08-12T09:53:25.730Z,40.92
2018-08-12T09:54:25.737Z,41.70
2018-08-12T09:55:25.742Z,41.70
2018-08-12T09:56:25.748Z,40.15
2018-08-12T09:57:25.749Z,40.05
2018-08-12T09:58:25.811Z,39.67
2018-08-12T09:59:25.764Z,39.47
2018-08-12T10:00:25.851Z,40.25
2018-08-12T10:01:25.767Z,40.34
2018-08-12T10:02:25.771Z,39.57
2018-08-12T10:03:25.774Z,38.87
2018-08-12T10:04:25.782Z,40.23
2018-08-12T10:05:25.783Z,40.44
2018-08-12T10:06:25.787Z,40.05
2018-08-12T10:07:25.805Z,42.18
2018-08-12T10:08:25.799Z,40.25
2018-08-12T10:09:25.801Z,38.70
2018-08-12T10:10:25.805Z,38.99
2018-08-12T10:11:25.809Z,40.05
2018-08-12T10:12:25.815Z,39.09
2018-08-12T10:13:25.817Z,39.67
2018-08-12T10:14:25.823Z,40.53
2018-08-12T10:15:25.873Z,40.53
2018-08-12T10:16:25.832Z,40.05
2018-08-12T10:17:25.834Z,39.95
2018-08-12T10:18:25.839Z,38.89
2018-08-12T10:19:25.841Z,39.67
2018-08-12T10:20:25.847Z,38.71
2018-08-12T10:21:25.857Z,38.23
2018-08-12T10:22:25.857Z,37.65
2018-08-12T10:23:25.864Z,38.62
2018-08-12T10:24:25.864Z,39.49
2018-08-12T10:25:25.873Z,37.55
2018-08-12T10:26:25.873Z,38.35
2018-08-12T10:27:25.876Z,37.85
2018-08-12T10:28:25.881Z,38.54
2018-08-12T10:29:25.888Z,38.45
2018-08-12T10:30:25.890Z,36.99
2018-08-12T10:31:25.892Z,36.32
2018-08-12T10:32:25.896Z,36.90
2018-08-12T10:33:25.901Z,37.67
2018-08-12T10:34:25.910Z,37.38
2018-08-12T10:35:25.910Z,36.41
2018-08-12T10:36:25.918Z,36.98
2018-08-12T10:37:25.919Z,37.77
2018-08-12T10:38:25.923Z,36.40
2018-08-12T10:39:25.932Z,37.17
2018-08-12T10:40:25.934Z,37.67
2018-08-12T10:41:25.939Z,37.94
2018-08-12T10:42:25.942Z,38.15
2018-08-12T10:43:25.945Z,37.36
2018-08-12T10:44:25.998Z,36.88
2018-08-12T10:45:25.956Z,36.78
2018-08-12T10:46:25.958Z,37.94
2018-08-12T10:47:25.963Z,38.71
2018-08-12T10:48:25.969Z,37.19
2018-08-12T10:49:25.971Z,37.77
2018-08-12T10:50:25.977Z,36.80
2018-08-12T10:51:25.983Z,37.19
2018-08-12T10:52:25.986Z,37.57
2018-08-12T10:53:25.985Z,37.48
2018-08-12T10:54:25.993Z,38.06
2018-08-12T10:55:25.997Z,35.73
2018-08-12T10:56:26.000Z,36.90
2018-08-12T10:57:26.002Z,36.51
2018-08-12T10:58:26.011Z,37.57
2018-08-12T10:59:26.106Z,36.12
2018-08-12T11:00:26.019Z,35.44
2018-08-12T11:01:26.024Z,35.93
2018-08-12T11:02:26.027Z,36.70
2018-08-12T11:03:26.032Z,36.62
2018-08-12T11:04:26.037Z,37.40
2018-08-12T11:05:26.048Z,37.21
2018-08-12T11:06:26.044Z,35.19
2018-08-12T11:07:26.093Z,35.67
2018-08-12T11:08:26.057Z,35.86
2018-08-12T11:09:26.059Z,36.16
2018-08-12T11:10:26.063Z,36.06
2018-08-12T11:11:26.069Z,33.73
2018-08-12T11:12:26.106Z,33.54
2018-08-12T11:13:26.077Z,33.15
2018-08-12T11:14:26.079Z,33.54
2018-08-12T11:15:26.085Z,32.17
2018-08-12T11:16:26.087Z,33.54
2018-08-12T11:17:26.094Z,35.28
2018-08-12T11:18:26.098Z,33.73
2018-08-12T11:19:26.101Z,34.51
2018-08-12T11:20:26.173Z,34.80
2018-08-12T11:21:26.110Z,35.48
2018-08-12T11:22:26.119Z,34.51
2018-08-12T11:23:26.119Z,33.25
2018-08-12T11:24:26.123Z,34.78
2018-08-12T11:25:26.131Z,34.39
2018-08-12T11:26:26.131Z,34.47
2018-08-12T11:27:26.138Z,34.09
2018-08-12T11:28:26.151Z,32.92
2018-08-12T11:29:26.149Z,34.09
2018-08-12T11:30:26.150Z,34.86
2018-08-12T11:31:26.155Z,34.47
2018-08-12T11:32:26.158Z,35.05
2018-08-12T11:33:26.162Z,35.05
2018-08-12T11:34:26.167Z,35.07
2018-08-12T11:35:26.171Z,35.07
2018-08-12T11:36:26.175Z,34.89
2018-08-12T11:37:26.181Z,34.80
2018-08-12T11:38:26.185Z,34.99
2018-08-12T11:39:26.192Z,34.12
2018-08-12T11:40:26.192Z,34.89
2018-08-12T11:41:26.199Z,34.89
2018-08-12T11:42:26.203Z,34.89
2018-08-12T11:43:26.209Z,34.02
2018-08-12T11:44:26.210Z,34.12
2018-08-12T11:45:26.227Z,34.99
2018-08-12T11:46:26.222Z,33.92
2018-08-12T11:47:26.271Z,34.80
2018-08-12T11:48:26.229Z,33.54
2018-08-12T11:49:26.238Z,33.04
2018-08-12T11:50:26.238Z,32.65
2018-08-12T11:51:26.243Z,33.14
2018-08-12T11:52:26.247Z,32.94
2018-08-12T11:53:26.251Z,33.04
2018-08-12T11:54:26.254Z,33.54
2018-08-12T11:55:26.259Z,33.25
2018-08-12T11:56:26.264Z,32.07
2018-08-12T11:57:26.271Z,32.36
2018-08-12T11:58:26.273Z,32.26
2018-08-12T11:59:26.280Z,32.96
2018-08-12T12:00:26.285Z,34.99
2018-08-12T12:01:26.285Z,32.76
2018-08-12T12:02:26.291Z,33.25
2018-08-12T12:03:26.294Z,32.47
2018-08-12T12:04:26.359Z,32.76
2018-08-12T12:05:26.308Z,33.15
2018-08-12T12:06:26.308Z,33.15
2018-08-12T12:07:26.310Z,33.25
2018-08-12T12:08:26.316Z,33.25
2018-08-12T12:09:26.320Z,33.34
2018-08-12T12:10:26.325Z,33.34
2018-08-12T12:11:26.331Z,33.54
2018-08-12T12:12:26.334Z,33.25
2018-08-12T12:13:26.336Z,32.28
2018-08-12T12:14:26.342Z,32.57
2018-08-12T12:15:26.346Z,31.79
2018-08-12T12:16:26.347Z,32.47
2018-08-12T12:17:26.352Z,34.31
2018-08-12T12:18:26.359Z,32.67
2018-08-12T12:19:26.366Z,33.34
2018-08-12T12:20:26.370Z,32.57
2018-08-12T12:21:26.375Z,32.07
2018-08-12T12:22:26.377Z,31.87
2018-08-12T12:23:26.383Z,33.33
2018-08-12T12:24:26.395Z,33.81
2018-08-12T12:25:26.387Z,33.34
2018-08-12T12:26:26.395Z,33.34
2018-08-12T12:27:26.394Z,33.44
2018-08-12T12:28:26.401Z,32.67
2018-08-12T12:29:26.405Z,32.96
2018-08-12T12:30:26.414Z,32.47
2018-08-12T12:31:26.414Z,33.06
2018-08-12T12:32:26.418Z,33.25
2018-08-12T12:33:26.422Z,32.76
2018-08-12T12:34:26.425Z,32.76
2018-08-12T12:35:26.454Z,33.06
2018-08-12T12:36:26.435Z,32.67
2018-08-12T12:37:26.442Z,32.20
2018-08-12T12:38:26.442Z,32.29
2018-08-12T12:39:26.449Z,32.29
2018-08-12T12:40:26.450Z,31.13
2018-08-12T12:41:26.457Z,31.42
2018-08-12T12:42:26.459Z,32.20
2018-08-12T12:43:26.467Z,31.81
2018-08-12T12:44:26.496Z,31.42
2018-08-12T12:45:26.473Z,30.94
2018-08-12T12:46:26.475Z,31.13
2018-08-12T12:47:26.479Z,31.31
2018-08-12T12:48:26.484Z,31.13
2018-08-12T12:49:26.547Z,31.04
2018-08-12T12:50:26.537Z,31.23
2018-08-12T12:51:26.501Z,31.91
2018-08-12T12:52:26.502Z,30.94